Kuujjuaq Airport, Quebec

Past 24 Hour Conditions

Date / Time
(EST)
Conditions Temp
(°C)
Humidity
(%)
Dew Point
(°C)
Wind
(km/h)
Pressure
(kPa)
Vis
(km)
Wind Chill
23 November 2014
4:00 Light Snow -15 85 -17 WSW 11 99.8 11 -22
3:00 Light Snow -14 85 -16 WSW 5 99.8 16 -18
2:00 Light Snow -16   85 -18 NW 8 99.7 13 -21
1:00 Light Snow -16   84 -18 NW 12 99.7 16 -23
00:00 Light Snow -15 85 -17 NW 9 99.6 4 -21
22 November 2014
23:00 Light Snow -15 85 -17 NNW 10 99.6 4 -21
22:00 Light Snow -15 86 -16 NNW 9 99.5 4 -20
21:00 Light Snow -14 86 -16 NW 8 99.5 4 -19
20:00 Light Snow -12 88 -13 E 4 99.6 6 -14
19:00 Light Snow -11   85 -13 SE 7 99.6 19 -16
18:00 Light Snow -11   83 -13 SSE 11 99.6 16 -17
17:00 Light Snow -11   82 -13 SSE 13 99.7 24 -17
16:00 Cloudy -13 85 -15 SE 4 99.7 24 -15
15:00 Mostly Cloudy -12 81 -15 NE 6 99.8 24 -16
14:00 Mostly Cloudy -11   75 -14 WNW 3 99.8 24 -12
13:00 Mostly Cloudy -11   77 -14 N 2 99.9 24 -12
12:00 Mostly Cloudy -11   77 -14 WSW 4 100.0 24 -13
11:00 Light Snow -12 83 -15 SW 5 100.0 24 -15
10:00 Light Snow -13 86 -15 SSW 10 100.1 24 -18
9:00 Mostly Cloudy -13 86 -15 SSW 8 100.2 24 -18
8:00 Mostly Cloudy -14 86 -16 WSW 14 100.3 24 -21
7:00 Mostly Cloudy -13 86 -15 WSW 8 100.3 24 -18
6:00 Mostly Cloudy -14 88 -16 SW 8 100.4 24 -19
5:00 Light Snow -15 87 -16 SW 7 100.4 19 -19
4:00 Light Snow -15 87 -17 S 8 100.4 16 -20
N/A Not available
↑ Highest temperature
↓ Lowest temperature
* Value not significant.

If you require additional historical weather information, please visit Climate Data Online.

Date modified: